createdAt,value
2018-07-26T00:00:54.337Z,99.99
2018-07-26T00:01:54.362Z,99.99
2018-07-26T00:02:54.379Z,99.99
2018-07-26T00:03:54.399Z,99.99
2018-07-26T00:04:54.419Z,99.62
2018-07-26T00:05:54.439Z,98.76
2018-07-26T00:06:54.459Z,98.57
2018-07-26T00:07:54.482Z,97.80
2018-07-26T00:08:54.548Z,98.47
2018-07-26T00:09:54.562Z,97.52
2018-07-26T00:10:54.539Z,97.90
2018-07-26T00:11:54.559Z,97.04
2018-07-26T00:12:54.580Z,97.13
2018-07-26T00:13:54.605Z,97.61
2018-07-26T00:14:54.622Z,99.33
2018-07-26T00:15:54.641Z,99.81
2018-07-26T00:16:54.662Z,99.99
2018-07-26T00:17:54.681Z,99.99
2018-07-26T00:18:54.700Z,99.81
2018-07-26T00:19:54.724Z,99.72
2018-07-26T00:20:54.742Z,99.52
2018-07-26T00:21:54.763Z,99.62
2018-07-26T00:22:54.783Z,99.33
2018-07-26T00:23:54.802Z,98.47
2018-07-26T00:24:54.835Z,98.66
2018-07-26T00:25:54.842Z,99.05
2018-07-26T00:26:54.867Z,99.81
2018-07-26T00:27:54.886Z,99.15
2018-07-26T00:28:54.906Z,99.99
2018-07-26T00:29:54.923Z,99.99
2018-07-26T00:30:54.943Z,99.99
2018-07-26T00:31:54.963Z,99.99
2018-07-26T00:32:54.986Z,99.99
2018-07-26T00:33:55.005Z,99.99
2018-07-26T00:34:55.023Z,99.99
2018-07-26T00:35:55.046Z,99.99
2018-07-26T00:36:55.066Z,99.99
2018-07-26T00:37:55.086Z,99.99
2018-07-26T00:38:55.106Z,99.99
2018-07-26T00:39:55.125Z,99.99
2018-07-26T00:40:55.144Z,99.99
2018-07-26T00:41:55.169Z,99.99
2018-07-26T00:42:55.185Z,99.99
2018-07-26T00:43:55.207Z,99.99
2018-07-26T00:44:55.226Z,99.99
2018-07-26T00:45:55.247Z,99.99
2018-07-26T00:46:55.264Z,99.99
2018-07-26T00:47:55.287Z,99.99
2018-07-26T00:48:55.307Z,99.99
2018-07-26T00:49:55.327Z,99.99
2018-07-26T00:50:55.345Z,99.99
2018-07-26T00:51:55.366Z,99.99
2018-07-26T00:52:55.385Z,99.99
2018-07-26T00:53:55.405Z,99.99
2018-07-26T00:54:55.425Z,99.99
2018-07-26T00:55:55.445Z,99.99
2018-07-26T00:56:55.464Z,99.99
2018-07-26T00:57:55.486Z,99.99
2018-07-26T00:58:55.505Z,99.99
2018-07-26T00:59:55.526Z,99.99
2018-07-26T01:00:55.547Z,99.99
2018-07-26T01:01:55.565Z,99.99
2018-07-26T01:02:55.583Z,99.99
2018-07-26T01:03:55.610Z,99.99
2018-07-26T01:04:55.628Z,99.99
2018-07-26T01:05:55.645Z,99.99
2018-07-26T01:06:55.664Z,99.99
2018-07-26T01:07:55.684Z,99.99
2018-07-26T01:08:55.704Z,99.99
2018-07-26T01:09:55.727Z,99.99
2018-07-26T01:10:55.744Z,99.99
2018-07-26T01:11:55.763Z,99.99
2018-07-26T01:12:55.784Z,99.99
2018-07-26T01:13:55.805Z,99.99
2018-07-26T01:14:55.821Z,99.99
2018-07-26T01:15:55.842Z,99.99
2018-07-26T01:16:55.864Z,99.99
2018-07-26T01:17:55.882Z,99.67
2018-07-26T01:18:55.904Z,99.99
2018-07-26T01:19:55.922Z,99.99
2018-07-26T01:20:55.942Z,99.99
2018-07-26T01:21:55.965Z,99.99
2018-07-26T01:22:55.981Z,99.99
2018-07-26T01:23:56.002Z,99.99
2018-07-26T01:24:56.025Z,99.38
2018-07-26T01:25:56.047Z,99.52
2018-07-26T01:26:56.063Z,99.99
2018-07-26T01:27:56.082Z,99.99
2018-07-26T01:28:56.102Z,99.99
2018-07-26T01:29:56.127Z,99.99
2018-07-26T01:30:56.140Z,99.99
2018-07-26T01:31:56.162Z,99.99
2018-07-26T01:32:56.180Z,99.86
2018-07-26T01:33:56.203Z,99.99
2018-07-26T01:34:56.223Z,99.76
2018-07-26T01:35:56.240Z,99.38
2018-07-26T01:36:56.261Z,99.99
2018-07-26T01:37:56.281Z,99.99
2018-07-26T01:38:56.298Z,99.67
2018-07-26T01:39:56.322Z,99.99
2018-07-26T01:40:56.339Z,99.99
2018-07-26T01:41:56.363Z,99.99
2018-07-26T01:42:56.381Z,99.48
2018-07-26T01:43:56.404Z,99.99
2018-07-26T01:44:56.418Z,99.99
2018-07-26T01:45:56.447Z,99.99
2018-07-26T01:46:56.460Z,99.99
2018-07-26T01:47:56.478Z,99.99
2018-07-26T01:48:56.498Z,99.99
2018-07-26T01:49:56.518Z,99.10
2018-07-26T01:50:56.536Z,99.29
2018-07-26T01:51:56.557Z,99.19
2018-07-26T01:52:56.576Z,98.52
2018-07-26T01:53:56.597Z,98.52
2018-07-26T01:54:56.616Z,98.52
2018-07-26T01:55:56.637Z,98.24
2018-07-26T01:56:56.656Z,97.47
2018-07-26T01:57:56.678Z,97.95
2018-07-26T01:58:56.697Z,99.00
2018-07-26T01:59:56.716Z,98.33
2018-07-26T02:00:56.738Z,98.81
2018-07-26T02:01:56.760Z,98.90
2018-07-26T02:02:56.776Z,99.48
2018-07-26T02:03:56.798Z,98.81
2018-07-26T02:04:56.815Z,99.38
2018-07-26T02:05:56.834Z,98.43
2018-07-26T02:06:56.854Z,96.80
2018-07-26T02:07:56.872Z,96.89
2018-07-26T02:08:56.893Z,95.94
2018-07-26T02:09:56.919Z,95.75
2018-07-26T02:10:56.932Z,95.27
2018-07-26T02:11:56.954Z,95.17
2018-07-26T02:12:56.975Z,95.03
2018-07-26T02:13:56.992Z,95.70
2018-07-26T02:14:57.014Z,96.51
2018-07-26T02:15:57.031Z,96.47
2018-07-26T02:16:57.053Z,97.33
2018-07-26T02:17:57.076Z,97.61
2018-07-26T02:18:57.095Z,98.43
2018-07-26T02:19:57.111Z,98.81
2018-07-26T02:20:57.134Z,97.56
2018-07-26T02:21:57.164Z,96.89
2018-07-26T02:22:57.169Z,97.08
2018-07-26T02:23:57.194Z,97.28
2018-07-26T02:24:57.208Z,96.80
2018-07-26T02:25:57.242Z,97.08
2018-07-26T02:26:57.249Z,96.80
2018-07-26T02:27:57.276Z,97.08
2018-07-26T02:28:57.292Z,97.75
2018-07-26T02:29:57.309Z,97.47
2018-07-26T02:30:57.343Z,97.56
2018-07-26T02:31:57.355Z,98.61
2018-07-26T02:32:57.370Z,98.33
2018-07-26T02:33:57.388Z,98.61
2018-07-26T02:34:57.408Z,99.48
2018-07-26T02:35:57.443Z,99.99
2018-07-26T02:36:57.521Z,99.99
2018-07-26T02:37:57.471Z,99.99
2018-07-26T02:38:57.486Z,99.86
2018-07-26T02:39:57.507Z,99.96
2018-07-26T02:40:57.526Z,99.76
2018-07-26T02:41:57.545Z,99.99
2018-07-26T02:42:57.562Z,99.99
2018-07-26T02:43:57.584Z,99.99
2018-07-26T02:44:57.603Z,99.99
2018-07-26T02:45:57.637Z,99.99
2018-07-26T02:46:57.641Z,99.99
2018-07-26T02:47:57.674Z,99.99
2018-07-26T02:48:57.681Z,99.99
2018-07-26T02:49:57.701Z,99.99
2018-07-26T02:50:57.721Z,99.99
2018-07-26T02:51:57.747Z,99.99
2018-07-26T02:52:57.759Z,99.86
2018-07-26T02:53:57.778Z,99.96
2018-07-26T02:54:57.803Z,99.76
2018-07-26T02:55:57.817Z,99.86
2018-07-26T02:56:57.838Z,99.96
2018-07-26T02:57:57.857Z,99.67
2018-07-26T02:58:57.875Z,99.57
2018-07-26T02:59:57.896Z,99.00
2018-07-26T03:00:57.917Z,99.10
2018-07-26T03:01:57.935Z,98.24
2018-07-26T03:02:57.955Z,98.33
2018-07-26T03:03:57.978Z,97.75
2018-07-26T03:04:57.999Z,97.18
2018-07-26T03:05:58.013Z,96.61
2018-07-26T03:06:58.032Z,96.99
2018-07-26T03:07:58.055Z,98.81
2018-07-26T03:08:58.073Z,99.38
2018-07-26T03:09:58.092Z,99.29
2018-07-26T03:10:58.114Z,99.10
2018-07-26T03:11:58.130Z,99.38
2018-07-26T03:12:58.150Z,99.10
2018-07-26T03:13:58.173Z,99.67
2018-07-26T03:14:58.193Z,99.29
2018-07-26T03:15:58.210Z,99.57
2018-07-26T03:16:58.230Z,99.10
2018-07-26T03:17:58.248Z,99.57
2018-07-26T03:18:58.266Z,99.10
2018-07-26T03:19:58.290Z,99.29
2018-07-26T03:20:58.474Z,99.76
2018-07-26T03:21:58.326Z,99.99
2018-07-26T03:22:58.345Z,99.99
2018-07-26T03:23:58.366Z,99.99
2018-07-26T03:24:58.401Z,99.99
2018-07-26T03:25:58.406Z,99.99
2018-07-26T03:26:58.427Z,99.99
2018-07-26T03:27:58.520Z,99.99
2018-07-26T03:28:58.461Z,99.99
2018-07-26T03:29:58.527Z,99.99
2018-07-26T03:30:58.504Z,99.99
2018-07-26T03:31:58.520Z,99.99
2018-07-26T03:32:58.540Z,99.99
2018-07-26T03:33:58.561Z,99.99
2018-07-26T03:34:58.578Z,99.99
2018-07-26T03:35:58.600Z,99.99
2018-07-26T03:36:58.618Z,99.99
2018-07-26T03:37:58.638Z,99.99
2018-07-26T03:38:58.656Z,99.99
2018-07-26T03:39:58.676Z,99.99
2018-07-26T03:40:58.697Z,99.99
2018-07-26T03:41:58.716Z,99.99
2018-07-26T03:42:58.751Z,99.99
2018-07-26T03:43:58.755Z,99.99
2018-07-26T03:44:58.773Z,99.99
2018-07-26T03:45:58.794Z,99.99
2018-07-26T03:46:58.811Z,99.99
2018-07-26T03:47:58.835Z,99.99
2018-07-26T03:48:58.852Z,99.99
2018-07-26T03:49:58.870Z,99.99
2018-07-26T03:50:58.891Z,99.99
2018-07-26T03:51:58.910Z,99.99
2018-07-26T03:52:58.930Z,99.99
2018-07-26T03:53:58.950Z,99.99
2018-07-26T03:54:58.966Z,99.99
2018-07-26T03:55:58.988Z,99.99
2018-07-26T03:56:59.011Z,99.99
2018-07-26T03:57:59.032Z,99.99
2018-07-26T03:58:59.047Z,99.99
2018-07-26T03:59:59.065Z,99.99
2018-07-26T04:00:59.085Z,99.99
2018-07-26T04:01:59.105Z,99.99
2018-07-26T04:02:59.124Z,99.99
2018-07-26T04:03:59.144Z,99.99
2018-07-26T04:04:59.164Z,99.99
2018-07-26T04:05:59.181Z,99.99
2018-07-26T04:06:59.201Z,99.99
2018-07-26T04:07:59.218Z,99.99
2018-07-26T04:08:59.239Z,99.99
2018-07-26T04:09:59.258Z,99.99
2018-07-26T04:10:59.277Z,99.99
2018-07-26T04:11:59.297Z,99.99
2018-07-26T04:12:59.316Z,99.99
2018-07-26T04:13:59.349Z,99.99
2018-07-26T04:14:59.359Z,99.99
2018-07-26T04:15:59.374Z,99.99
2018-07-26T04:16:59.393Z,99.90
2018-07-26T04:17:59.414Z,99.99
2018-07-26T04:18:59.432Z,99.99
2018-07-26T04:19:59.515Z,98.95
2018-07-26T04:20:59.471Z,98.75
2018-07-26T04:21:59.491Z,98.66
2018-07-26T04:22:59.509Z,98.57
2018-07-26T04:23:59.528Z,97.71
2018-07-26T04:24:59.553Z,96.75
2018-07-26T04:25:59.617Z,96.66
2018-07-26T04:26:59.585Z,96.84
2018-07-26T04:27:59.605Z,96.27
2018-07-26T04:28:59.648Z,96.08
2018-07-26T04:29:59.645Z,95.70
2018-07-26T04:30:59.663Z,95.32
2018-07-26T04:31:59.910Z,95.51
2018-07-26T04:32:59.703Z,96.56
2018-07-26T04:33:59.723Z,97.23
2018-07-26T04:34:59.740Z,96.94
2018-07-26T04:35:59.760Z,96.94
2018-07-26T04:36:59.779Z,96.56
2018-07-26T04:37:59.799Z,95.98
2018-07-26T04:38:59.818Z,95.51
2018-07-26T04:39:59.836Z,95.70
2018-07-26T04:40:59.856Z,95.32
2018-07-26T04:41:59.875Z,95.41
2018-07-26T04:42:59.931Z,95.12
2018-07-26T04:43:59.913Z,95.12
2018-07-26T04:44:59.934Z,94.55
2018-07-26T04:45:59.952Z,94.74
2018-07-26T04:46:59.972Z,94.26
2018-07-26T04:47:59.991Z,93.88
2018-07-26T04:49:00.037Z,94.26
2018-07-26T04:50:00.037Z,93.31
2018-07-26T04:51:00.051Z,93.21
2018-07-26T04:52:00.073Z,94.26
2018-07-26T04:53:00.092Z,94.46
2018-07-26T04:54:00.110Z,95.51
2018-07-26T04:55:00.127Z,96.56
2018-07-26T04:56:00.146Z,97.13
2018-07-26T04:57:00.169Z,96.66
2018-07-26T04:58:00.185Z,96.75
2018-07-26T04:59:00.204Z,96.75
2018-07-26T05:00:00.223Z,96.56
2018-07-26T05:01:00.244Z,96.66
2018-07-26T05:02:00.264Z,96.37
2018-07-26T05:03:00.279Z,96.56
2018-07-26T05:04:00.300Z,97.52
2018-07-26T05:05:00.320Z,97.71
2018-07-26T05:06:00.341Z,98.47
2018-07-26T05:07:00.358Z,98.66
2018-07-26T05:08:00.423Z,99.24
2018-07-26T05:09:00.397Z,99.62
2018-07-26T05:10:00.416Z,99.24
2018-07-26T05:11:00.434Z,99.99
2018-07-26T05:12:00.454Z,99.14
2018-07-26T05:13:00.474Z,99.99
2018-07-26T05:14:00.494Z,99.04
2018-07-26T05:15:00.511Z,98.57
2018-07-26T05:16:00.532Z,98.57
2018-07-26T05:17:00.626Z,98.18
2018-07-26T05:18:00.570Z,98.47
2018-07-26T05:19:00.646Z,98.57
2018-07-26T05:20:00.618Z,98.38
2018-07-26T05:21:00.627Z,99.43
2018-07-26T05:22:00.648Z,99.14
2018-07-26T05:23:00.666Z,98.95
2018-07-26T05:24:00.690Z,98.95
2018-07-26T05:25:00.704Z,99.99
2018-07-26T05:26:00.725Z,99.99
2018-07-26T05:27:00.744Z,99.99
2018-07-26T05:28:00.763Z,99.99
2018-07-26T05:29:00.788Z,99.99
2018-07-26T05:30:00.801Z,99.99
2018-07-26T05:31:00.824Z,99.99
2018-07-26T05:32:00.840Z,99.99
2018-07-26T05:33:00.861Z,99.99
2018-07-26T05:34:00.881Z,99.99
2018-07-26T05:35:00.897Z,99.99
2018-07-26T05:36:00.917Z,99.99
2018-07-26T05:37:00.937Z,99.99
2018-07-26T05:38:00.956Z,99.99
2018-07-26T05:39:00.980Z,99.99
2018-07-26T05:40:00.994Z,99.99
2018-07-26T05:41:01.015Z,99.81
2018-07-26T05:42:01.034Z,99.48
2018-07-26T05:43:01.052Z,99.00
2018-07-26T05:44:01.071Z,99.99
2018-07-26T05:45:01.093Z,99.99
2018-07-26T05:46:01.113Z,99.48
2018-07-26T05:47:01.131Z,99.10
2018-07-26T05:48:01.157Z,99.38
2018-07-26T05:49:01.169Z,99.19
2018-07-26T05:50:01.188Z,98.61
2018-07-26T05:51:01.209Z,98.24
2018-07-26T05:52:01.228Z,97.56
2018-07-26T05:53:01.248Z,97.56
2018-07-26T05:54:01.270Z,97.08
2018-07-26T05:55:01.286Z,96.70
2018-07-26T05:56:01.308Z,96.13
2018-07-26T05:57:01.324Z,96.13
2018-07-26T05:58:01.344Z,96.03
2018-07-26T05:59:01.365Z,95.94
2018-07-26T06:00:01.417Z,95.65
2018-07-26T06:01:01.404Z,94.41
2018-07-26T06:02:01.425Z,93.79
2018-07-26T06:03:01.441Z,92.49
2018-07-26T06:04:01.465Z,92.83
2018-07-26T06:05:01.480Z,94.45
2018-07-26T06:06:01.500Z,94.74
2018-07-26T06:07:01.525Z,93.59
2018-07-26T06:08:01.540Z,93.50
2018-07-26T06:09:01.562Z,93.50
2018-07-26T06:10:01.578Z,92.54
2018-07-26T06:11:01.599Z,91.49
2018-07-26T06:12:01.618Z,90.15
2018-07-26T06:13:01.639Z,90.05
2018-07-26T06:14:01.656Z,92.06
2018-07-26T06:15:01.681Z,90.63
2018-07-26T06:16:01.797Z,91.97
2018-07-26T06:17:01.718Z,92.01
2018-07-26T06:18:01.736Z,91.53
2018-07-26T06:19:01.756Z,91.25
2018-07-26T06:20:01.775Z,87.32
2018-07-26T06:21:01.795Z,85.98
2018-07-26T06:22:01.818Z,83.01
2018-07-26T06:23:01.835Z,82.15
2018-07-26T06:24:01.854Z,83.01
2018-07-26T06:25:01.879Z,82.15
2018-07-26T06:26:01.901Z,82.34
2018-07-26T06:27:01.915Z,82.24
2018-07-26T06:28:01.959Z,83.97
2018-07-26T06:29:01.955Z,85.50
2018-07-26T06:30:01.978Z,84.92
2018-07-26T06:31:01.997Z,81.10
2018-07-26T06:32:02.014Z,81.96
2018-07-26T06:33:02.036Z,79.66
2018-07-26T06:34:02.057Z,80.43
2018-07-26T06:35:02.077Z,80.33
2018-07-26T06:36:02.095Z,81.10
2018-07-26T06:37:02.115Z,85.21
2018-07-26T06:38:02.136Z,86.69
2018-07-26T06:39:02.154Z,87.84
2018-07-26T06:40:02.177Z,86.98
2018-07-26T06:41:02.196Z,88.99
2018-07-26T06:42:02.219Z,89.86
2018-07-26T06:43:02.235Z,88.03
2018-07-26T06:44:02.256Z,85.64
2018-07-26T06:45:02.276Z,85.16
2018-07-26T06:46:02.294Z,85.06
2018-07-26T06:47:02.341Z,84.58
2018-07-26T06:48:02.337Z,84.68
2018-07-26T06:49:02.365Z,85.83
2018-07-26T06:50:02.377Z,87.08
2018-07-26T06:51:02.395Z,86.41
2018-07-26T06:52:02.417Z,87.74
2018-07-26T06:53:02.438Z,86.21
2018-07-26T06:54:02.459Z,84.39
2018-07-26T06:55:02.486Z,85.74
2018-07-26T06:56:02.496Z,86.50
2018-07-26T06:57:02.523Z,90.05
2018-07-26T06:58:02.537Z,88.03
2018-07-26T06:59:02.556Z,85.16
2018-07-26T07:00:02.577Z,83.15
2018-07-26T07:01:02.596Z,84.39
2018-07-26T07:02:02.762Z,84.39
2018-07-26T07:03:02.638Z,85.83
2018-07-26T07:04:02.657Z,87.55
2018-07-26T07:05:02.680Z,88.23
2018-07-26T07:06:02.702Z,89.37
2018-07-26T07:07:02.719Z,87.94
2018-07-26T07:08:02.737Z,89.47
2018-07-26T07:09:02.759Z,87.84
2018-07-26T07:10:02.790Z,86.12
2018-07-26T07:11:02.798Z,87.55
2018-07-26T07:12:02.821Z,86.79
2018-07-26T07:13:02.841Z,86.88
2018-07-26T07:14:02.861Z,88.03
2018-07-26T07:15:02.880Z,90.33
2018-07-26T07:16:02.902Z,89.51
2018-07-26T07:17:02.924Z,89.23
2018-07-26T07:18:02.941Z,88.75
2018-07-26T07:19:02.962Z,87.37
2018-07-26T07:20:02.982Z,88.99
2018-07-26T07:21:03.003Z,88.17
2018-07-26T07:22:03.068Z,88.46
2018-07-26T07:23:03.044Z,88.56
2018-07-26T07:24:03.065Z,86.98
2018-07-26T07:25:03.083Z,90.76
2018-07-26T07:26:03.173Z,90.28
2018-07-26T07:27:03.126Z,88.37
2018-07-26T07:28:03.146Z,91.72
2018-07-26T07:29:03.165Z,89.42
2018-07-26T07:30:03.187Z,87.79
2018-07-26T07:31:03.206Z,89.61
2018-07-26T07:32:03.224Z,87.02
2018-07-26T07:33:03.247Z,86.74
2018-07-26T07:34:03.265Z,88.37
2018-07-26T07:35:03.287Z,90.47
2018-07-26T07:36:03.310Z,87.98
2018-07-26T07:37:03.328Z,87.50
2018-07-26T07:38:03.350Z,88.08
2018-07-26T07:39:03.368Z,89.04
2018-07-26T07:40:03.392Z,85.78
2018-07-26T07:41:03.410Z,83.67
2018-07-26T07:42:03.432Z,91.48
2018-07-26T07:43:03.452Z,88.12
2018-07-26T07:44:03.470Z,90.33
2018-07-26T07:45:03.490Z,91.28
2018-07-26T07:46:03.510Z,89.08
2018-07-26T07:47:03.609Z,86.34
2018-07-26T07:48:03.551Z,88.26
2018-07-26T07:49:03.571Z,89.51
2018-07-26T07:50:03.592Z,89.51
2018-07-26T07:51:03.612Z,87.21
2018-07-26T07:52:03.634Z,93.35
2018-07-26T07:53:03.654Z,86.63
2018-07-26T07:54:03.677Z,88.93
2018-07-26T07:55:03.694Z,82.21
2018-07-26T07:56:03.717Z,88.35
2018-07-26T07:57:03.739Z,88.79
2018-07-26T07:58:03.755Z,86.58
2018-07-26T07:59:03.778Z,81.30
2018-07-26T08:00:03.797Z,78.61
2018-07-26T08:01:03.819Z,79.24
2018-07-26T08:02:03.837Z,79.05
2018-07-26T08:03:03.859Z,80.30
2018-07-26T08:04:03.880Z,82.89
2018-07-26T08:05:03.901Z,82.31
2018-07-26T08:06:03.922Z,83.12
2018-07-26T08:07:03.943Z,80.34
2018-07-26T08:08:03.969Z,81.16
2018-07-26T08:09:03.985Z,84.37
2018-07-26T08:10:04.007Z,81.40
2018-07-26T08:11:04.029Z,80.15
2018-07-26T08:12:04.051Z,80.82
2018-07-26T08:13:04.068Z,81.49
2018-07-26T08:14:04.090Z,84.27
2018-07-26T08:15:04.112Z,85.81
2018-07-26T08:16:04.131Z,81.72
2018-07-26T08:17:04.154Z,80.57
2018-07-26T08:18:04.175Z,81.15
2018-07-26T08:19:04.197Z,80.76
2018-07-26T08:20:04.215Z,79.42
2018-07-26T08:21:04.240Z,84.70
2018-07-26T08:22:04.257Z,80.38
2018-07-26T08:23:04.278Z,77.78
2018-07-26T08:24:04.304Z,81.63
2018-07-26T08:25:04.321Z,80.76
2018-07-26T08:26:04.343Z,80.38
2018-07-26T08:27:04.363Z,80.90
2018-07-26T08:28:04.385Z,77.92
2018-07-26T08:29:04.407Z,77.34
2018-07-26T08:30:04.427Z,85.36
2018-07-26T08:31:04.448Z,79.84
2018-07-26T08:32:04.471Z,82.09
2018-07-26T08:33:04.490Z,81.71
2018-07-26T08:34:04.514Z,75.17
2018-07-26T08:35:04.588Z,75.62
2018-07-26T08:36:04.555Z,78.34
2018-07-26T08:37:04.575Z,74.75
2018-07-26T08:38:04.599Z,77.44
2018-07-26T08:39:04.618Z,75.48
2018-07-26T08:40:04.643Z,77.44
2018-07-26T08:41:04.688Z,74.37
2018-07-26T08:42:04.684Z,78.59
2018-07-26T08:43:04.704Z,78.11
2018-07-26T08:44:04.727Z,75.57
2018-07-26T08:45:04.748Z,73.66
2018-07-26T08:46:04.773Z,75.29
2018-07-26T08:47:04.793Z,76.00
2018-07-26T08:48:04.877Z,75.81
2018-07-26T08:49:04.835Z,79.65
2018-07-26T08:50:04.857Z,74.94
2018-07-26T08:51:04.879Z,78.30
2018-07-26T08:52:04.917Z,78.73
2018-07-26T08:53:04.921Z,75.62
2018-07-26T08:54:04.951Z,77.15
2018-07-26T08:55:04.964Z,75.81
2018-07-26T08:56:04.985Z,75.81
2018-07-26T08:57:05.009Z,76.14
2018-07-26T08:58:05.030Z,75.17
2018-07-26T08:59:05.056Z,73.35
2018-07-26T09:00:05.076Z,75.11
2018-07-26T09:01:05.145Z,72.77
2018-07-26T09:02:05.119Z,71.42
2018-07-26T09:03:05.138Z,79.40
2018-07-26T09:04:05.163Z,73.83
2018-07-26T09:05:05.184Z,75.75
2018-07-26T09:06:05.215Z,70.94
2018-07-26T09:07:05.227Z,72.00
2018-07-26T09:08:05.251Z,74.27
2018-07-26T09:09:05.272Z,74.55
2018-07-26T09:10:05.296Z,71.96
2018-07-26T09:11:05.317Z,75.84
2018-07-26T09:12:05.342Z,76.23
2018-07-26T09:13:05.360Z,74.50
2018-07-26T09:14:05.383Z,71.81
2018-07-26T09:15:05.404Z,73.15
2018-07-26T09:16:05.428Z,72.67
2018-07-26T09:17:05.449Z,76.46
2018-07-26T09:18:05.481Z,74.19
2018-07-26T09:19:05.495Z,71.78
2018-07-26T09:20:05.516Z,72.07
2018-07-26T09:21:05.536Z,71.30
2018-07-26T09:22:05.567Z,68.96
2018-07-26T09:23:05.581Z,67.90
2018-07-26T09:24:05.604Z,69.63
2018-07-26T09:25:05.626Z,72.32
2018-07-26T09:26:05.682Z,67.80
2018-07-26T09:27:05.671Z,70.88
2018-07-26T09:28:05.693Z,70.78
2018-07-26T09:29:05.716Z,68.96
2018-07-26T09:30:05.742Z,75.02
2018-07-26T09:31:05.768Z,70.68
2018-07-26T09:32:05.787Z,69.24
2018-07-26T09:33:05.901Z,70.50
2018-07-26T09:34:05.829Z,67.42
2018-07-26T09:35:05.852Z,67.13
2018-07-26T09:36:05.875Z,72.65
2018-07-26T09:37:05.900Z,65.72
2018-07-26T09:38:05.921Z,66.78
2018-07-26T09:39:05.946Z,65.33
2018-07-26T09:40:05.967Z,64.82
2018-07-26T09:41:06.010Z,66.07
2018-07-26T09:42:06.018Z,67.32
2018-07-26T09:43:06.035Z,66.49
2018-07-26T09:44:06.059Z,65.14
2018-07-26T09:45:06.084Z,64.98
2018-07-26T09:46:06.104Z,63.82
2018-07-26T09:47:06.126Z,63.15
2018-07-26T09:48:06.150Z,62.70
2018-07-26T09:49:06.173Z,63.67
2018-07-26T09:50:06.203Z,64.34
2018-07-26T09:51:06.222Z,63.82
2018-07-26T09:52:06.242Z,66.81
2018-07-26T09:53:06.264Z,64.43
2018-07-26T09:54:06.288Z,59.66
2018-07-26T09:55:06.312Z,60.88
2018-07-26T09:56:06.334Z,60.62
2018-07-26T09:57:06.359Z,63.41
2018-07-26T09:58:06.381Z,63.54
2018-07-26T09:59:06.407Z,64.02
2018-07-26T10:00:06.431Z,63.67
2018-07-26T10:01:06.451Z,63.18
2018-07-26T10:02:06.474Z,62.51
2018-07-26T10:03:06.502Z,61.45
2018-07-26T10:04:06.521Z,63.70
2018-07-26T10:05:06.546Z,62.25
2018-07-26T10:06:06.569Z,67.40
2018-07-26T10:07:06.594Z,62.18
2018-07-26T10:08:06.617Z,62.76
2018-07-26T10:09:06.640Z,60.10
2018-07-26T10:10:06.664Z,59.78
2018-07-26T10:11:06.687Z,65.69
2018-07-26T10:12:06.710Z,64.86
2018-07-26T10:13:06.734Z,61.28
2018-07-26T10:14:06.798Z,61.96
2018-07-26T10:15:06.855Z,61.86
2018-07-26T10:16:06.808Z,62.95
2018-07-26T10:17:06.837Z,59.48
2018-07-26T10:18:06.855Z,61.12
2018-07-26T10:19:06.883Z,60.16
2018-07-26T10:20:06.955Z,57.45
2018-07-26T10:21:06.931Z,59.96
2018-07-26T10:22:06.952Z,54.17
2018-07-26T10:23:06.980Z,55.81
2018-07-26T10:24:07.005Z,55.13
2018-07-26T10:25:07.026Z,53.59
2018-07-26T10:26:07.053Z,54.65
2018-07-26T10:27:07.081Z,52.04
2018-07-26T10:28:07.101Z,52.23
2018-07-26T10:29:07.125Z,54.14
2018-07-26T10:30:07.148Z,58.97
2018-07-26T10:31:07.175Z,56.36
2018-07-26T10:32:07.211Z,57.62
2018-07-26T10:33:07.257Z,54.62
2018-07-26T10:34:07.258Z,53.80
2018-07-26T10:35:07.275Z,57.29
2018-07-26T10:36:07.303Z,57.56
2018-07-26T10:37:07.324Z,57.78
2018-07-26T10:38:07.353Z,51.89
2018-07-26T10:39:07.373Z,52.25
2018-07-26T10:40:07.400Z,57.65
2018-07-26T10:41:07.424Z,56.04
2018-07-26T10:42:07.448Z,56.84
2018-07-26T10:43:07.477Z,53.17
2018-07-26T10:44:07.501Z,57.74
2018-07-26T10:45:07.525Z,57.54
2018-07-26T10:46:07.549Z,53.71
2018-07-26T10:47:07.576Z,53.13
2018-07-26T10:48:07.602Z,50.23
2018-07-26T10:49:07.628Z,53.42
2018-07-26T10:50:07.651Z,55.93
2018-07-26T10:51:07.676Z,51.03
2018-07-26T10:52:07.703Z,49.53
2018-07-26T10:53:07.726Z,53.85
2018-07-26T10:54:07.756Z,54.72
2018-07-26T10:55:07.778Z,55.71
2018-07-26T10:56:07.804Z,54.07
2018-07-26T10:57:07.828Z,51.75
2018-07-26T10:58:07.856Z,53.01
2018-07-26T10:59:07.881Z,52.72
2018-07-26T11:00:07.904Z,49.99
2018-07-26T11:01:07.935Z,54.46
2018-07-26T11:02:07.959Z,53.69
2018-07-26T11:03:07.983Z,49.82
2018-07-26T11:04:08.008Z,50.62
2018-07-26T11:05:08.035Z,52.17
2018-07-26T11:06:08.060Z,52.36
2018-07-26T11:07:08.086Z,54.90
2018-07-26T11:08:08.111Z,49.19
2018-07-26T11:09:08.138Z,52.19
2018-07-26T11:10:08.165Z,49.99
2018-07-26T11:11:08.190Z,47.14
2018-07-26T11:12:08.215Z,47.58
2018-07-26T11:13:08.241Z,50.40
2018-07-26T11:14:08.302Z,50.69
2018-07-26T11:15:08.315Z,52.29
2018-07-26T11:16:08.320Z,47.74
2018-07-26T11:17:08.345Z,47.74
2018-07-26T11:18:08.369Z,45.52
2018-07-26T11:19:08.489Z,46.27
2018-07-26T11:20:08.422Z,50.45
2018-07-26T11:21:08.448Z,47.65
2018-07-26T11:22:08.474Z,46.20
2018-07-26T11:23:08.499Z,47.55
2018-07-26T11:24:08.529Z,43.95
2018-07-26T11:25:08.552Z,45.69
2018-07-26T11:26:08.580Z,45.31
2018-07-26T11:27:08.663Z,45.91
2018-07-26T11:28:08.629Z,43.57
2018-07-26T11:29:08.655Z,43.78
2018-07-26T11:30:08.683Z,45.33
2018-07-26T11:31:08.708Z,42.50
2018-07-26T11:32:08.733Z,42.50
2018-07-26T11:33:08.761Z,41.54
2018-07-26T11:34:08.786Z,42.87
2018-07-26T11:35:08.815Z,42.58
2018-07-26T11:36:08.842Z,43.26
2018-07-26T11:37:08.866Z,43.08
2018-07-26T11:38:08.892Z,42.41
2018-07-26T11:39:08.921Z,41.63
2018-07-26T11:40:08.945Z,43.59
2018-07-26T11:41:08.970Z,42.52
2018-07-26T11:42:08.996Z,40.88
2018-07-26T11:43:09.022Z,40.30
2018-07-26T11:44:09.048Z,44.09
2018-07-26T11:45:09.074Z,41.09
2018-07-26T11:46:09.101Z,38.99
2018-07-26T11:47:09.125Z,40.03
2018-07-26T11:48:09.153Z,41.29
2018-07-26T11:49:09.176Z,40.25
2018-07-26T11:50:09.257Z,40.32
2018-07-26T11:51:09.231Z,40.03
2018-07-26T11:52:09.257Z,41.58
2018-07-26T11:53:09.283Z,39.36
2018-07-26T11:54:09.308Z,37.62
2018-07-26T11:55:09.335Z,37.82
2018-07-26T11:56:09.361Z,35.52
2018-07-26T11:57:09.387Z,34.17
2018-07-26T11:58:09.460Z,35.91
2018-07-26T11:59:09.441Z,34.94
2018-07-26T12:00:09.469Z,35.70
2018-07-26T12:01:09.499Z,36.68
2018-07-26T12:02:09.521Z,35.50
2018-07-26T12:03:09.548Z,36.76
2018-07-26T12:04:09.574Z,36.65
2018-07-26T12:05:09.604Z,37.04
2018-07-26T12:06:09.649Z,37.63
2018-07-26T12:07:09.658Z,37.82
2018-07-26T12:08:09.733Z,38.81
2018-07-26T12:09:09.708Z,35.21
2018-07-26T12:10:09.736Z,36.00
2018-07-26T12:11:09.761Z,36.40
2018-07-26T12:12:09.793Z,36.88
2018-07-26T12:13:09.814Z,38.62
2018-07-26T12:14:09.843Z,36.86
2018-07-26T12:15:09.868Z,37.75
2018-07-26T12:16:09.896Z,38.83
2018-07-26T12:17:09.921Z,38.04
2018-07-26T12:18:09.953Z,37.38
2018-07-26T12:19:09.978Z,36.70
2018-07-26T12:20:10.006Z,35.23
2018-07-26T12:21:10.037Z,36.66
2018-07-26T12:22:10.064Z,38.68
2018-07-26T12:23:10.162Z,37.90
2018-07-26T12:24:10.111Z,37.63
2018-07-26T12:25:10.139Z,37.46
2018-07-26T12:26:10.168Z,36.28
2018-07-26T12:27:10.271Z,38.79
2018-07-26T12:28:10.221Z,38.73
2018-07-26T12:29:10.289Z,36.40
2018-07-26T12:30:10.275Z,36.38
2018-07-26T12:31:10.301Z,36.26
2018-07-26T12:32:10.325Z,36.38
2018-07-26T12:33:10.356Z,35.88
2018-07-26T12:34:10.382Z,38.99
2018-07-26T12:35:10.407Z,35.70
2018-07-26T12:36:10.433Z,36.68
2018-07-26T12:37:10.469Z,34.92
2018-07-26T12:38:10.494Z,36.68
2018-07-26T12:39:10.515Z,36.70
2018-07-26T12:40:10.541Z,37.69
2018-07-26T12:41:10.595Z,35.05
2018-07-26T12:42:10.597Z,33.76
2018-07-26T12:43:10.623Z,35.70
2018-07-26T12:44:10.651Z,36.22
2018-07-26T12:45:10.679Z,37.98
2018-07-26T12:46:10.709Z,35.85
2018-07-26T12:47:10.732Z,36.22
2018-07-26T12:48:10.759Z,36.22
2018-07-26T12:49:10.786Z,38.66
2018-07-26T12:50:10.813Z,37.32
2018-07-26T12:51:10.840Z,36.33
2018-07-26T12:52:10.869Z,36.91
2018-07-26T12:53:10.905Z,36.52